createdAt,value
2022-11-12T00:06:19.389Z,0.80
2022-11-12T00:16:39.481Z,0.70
2022-11-12T00:26:59.738Z,0.70
2022-11-12T00:37:20.598Z,0.80
2022-11-12T00:47:40.862Z,0.70
2022-11-12T00:58:00.861Z,0.60
2022-11-12T01:08:20.769Z,0.60
2022-11-12T01:18:41.640Z,0.70
2022-11-12T01:29:01.847Z,0.82
2022-11-12T01:39:21.745Z,0.77
2022-11-12T01:49:57.311Z,0.70
2022-11-12T02:00:17.886Z,0.73
2022-11-12T02:10:39.401Z,0.70
2022-11-12T02:21:04.038Z,0.73
2022-11-12T02:31:23.919Z,0.68
2022-11-12T02:41:44.123Z,0.70
2022-11-12T02:52:04.969Z,0.60
2022-11-12T03:02:24.827Z,0.65
2022-11-12T03:12:45.074Z,0.70
2022-11-12T03:23:07.593Z,0.90
2022-11-12T03:33:27.683Z,0.60
2022-11-12T03:43:47.808Z,0.70
2022-11-12T03:54:07.722Z,0.60
2022-11-12T04:04:47.406Z,0.75
2022-11-12T04:15:07.805Z,0.70
2022-11-12T04:25:46.238Z,0.90
2022-11-12T04:36:06.615Z,0.50
2022-11-12T04:46:26.708Z,0.57
2022-11-12T04:56:46.669Z,0.70
2022-11-12T05:07:06.943Z,0.80
2022-11-12T05:17:27.078Z,0.60
2022-11-12T05:27:46.849Z,0.80
2022-11-12T05:38:06.873Z,0.60
2022-11-12T05:48:27.396Z,0.60
2022-11-12T05:58:47.504Z,0.80
2022-11-12T06:09:08.078Z,0.68
2022-11-12T06:19:28.399Z,0.68
2022-11-12T06:29:48.289Z,1.00
2022-11-12T06:40:08.712Z,1.85
2022-11-12T06:50:28.969Z,1.80
2022-11-12T07:00:48.898Z,1.90
2022-11-12T07:11:09.207Z,1.92
2022-11-12T07:21:29.442Z,2.22
2022-11-12T07:43:45.405Z,2.30
2022-11-12T07:54:05.657Z,2.10
2022-11-12T08:04:25.725Z,2.17
2022-11-12T08:14:45.975Z,2.35
2022-11-12T08:25:06.120Z,2.40
2022-11-12T08:35:27.790Z,2.33
2022-11-12T08:45:48.607Z,2.30
2022-11-12T08:56:08.848Z,2.00
2022-11-12T09:06:28.751Z,2.60
2022-11-12T09:16:48.765Z,3.22
2022-11-12T09:27:08.569Z,2.80
2022-11-12T09:37:28.671Z,2.35
2022-11-12T09:47:54.529Z,2.05
2022-11-12T10:08:40.484Z,1.83
2022-11-12T10:19:12.846Z,2.10
2022-11-12T10:29:35.459Z,1.88
2022-11-12T10:39:55.396Z,2.10
2022-11-12T10:50:19.524Z,1.70
2022-11-12T11:01:03.505Z,1.70
2022-11-12T11:11:30.931Z,1.85
2022-11-12T11:21:50.812Z,1.92
2022-11-12T11:32:36.086Z,1.60
2022-11-12T11:43:31.794Z,1.73
2022-11-12T11:54:17.007Z,1.67
2022-11-12T12:04:56.875Z,1.42
2022-11-12T12:15:31.726Z,1.80
2022-11-12T12:25:56.111Z,1.70
2022-11-12T12:36:26.841Z,1.73
2022-11-12T12:46:51.122Z,2.05
2022-11-12T12:57:32.021Z,1.40
2022-11-12T13:07:52.485Z,1.40
2022-11-12T13:18:38.498Z,1.48
2022-11-12T13:29:23.497Z,1.52
2022-11-12T13:39:43.385Z,1.50
2022-11-12T13:50:07.539Z,1.52
2022-11-12T14:00:28.798Z,1.40
2022-11-12T14:11:14.848Z,1.40
2022-11-12T14:21:34.809Z,1.52
2022-11-12T14:32:02.831Z,1.13
2022-11-12T14:42:22.989Z,1.27
2022-11-12T14:52:45.916Z,1.60
2022-11-12T15:03:07.118Z,1.70
2022-11-12T15:13:27.913Z,1.42
2022-11-12T15:23:50.558Z,1.30
2022-11-12T15:34:41.283Z,1.35
2022-11-12T15:45:03.614Z,1.35
2022-11-12T15:55:23.522Z,1.40
2022-11-12T16:05:44.259Z,1.38
2022-11-12T16:16:07.540Z,1.20
2022-11-12T16:26:28.898Z,1.27
2022-11-12T16:36:49.884Z,1.25
2022-11-12T16:47:10.955Z,1.40
2022-11-12T16:57:30.741Z,1.30
2022-11-12T17:07:55.833Z,1.50
2022-11-12T17:18:15.728Z,1.43
2022-11-12T17:28:35.994Z,1.60
2022-11-12T17:38:57.701Z,1.40
2022-11-12T17:49:19.157Z,1.30
2022-11-12T17:59:39.354Z,1.05
2022-11-12T18:09:59.384Z,1.10
2022-11-12T18:20:19.771Z,0.98
2022-11-12T18:30:39.937Z,1.50
2022-11-12T18:41:06.733Z,1.05
2022-11-12T18:51:26.663Z,1.00
2022-11-12T19:01:47.243Z,1.20
2022-11-12T19:12:07.346Z,1.10
2022-11-12T19:22:27.555Z,1.30
2022-11-12T19:32:47.657Z,1.10
2022-11-12T19:43:07.816Z,1.20
2022-11-12T19:53:31.920Z,1.00
2022-11-12T20:03:52.785Z,1.20
2022-11-12T20:14:13.045Z,1.02
2022-11-12T20:24:32.969Z,1.00
2022-11-12T20:34:53.013Z,1.05
2022-11-12T20:45:13.144Z,1.20
2022-11-12T20:55:33.306Z,1.25
2022-11-12T21:06:00.209Z,1.05
2022-11-12T21:16:20.184Z,0.90
2022-11-12T21:26:40.378Z,1.05
2022-11-12T21:37:00.629Z,1.10
2022-11-12T21:47:20.609Z,0.88
2022-11-12T21:57:40.711Z,1.10
2022-11-12T22:08:00.602Z,0.95
2022-11-12T22:18:20.482Z,1.25
2022-11-12T22:28:40.665Z,1.23
2022-11-12T22:39:00.456Z,0.98
2022-11-12T22:49:20.376Z,1.00
2022-11-12T22:59:40.509Z,0.80
2022-11-12T23:10:00.300Z,0.90
2022-11-12T23:20:20.168Z,0.90
2022-11-12T23:30:40.049Z,0.93
2022-11-12T23:41:00.777Z,1.00
2022-11-12T23:51:21.929Z,0.90
